Time;durP1;ratioP1;P1;durP2;ratioP2;P2;SDS_P1;SDS_P2;PMS_P1;PMS_P2;Temp;Humidity;BMP_temperature;BMP_pressure;BME280_temperature;BME280_humidity;BME280_pressure;Samples;Min_cycle;Max_cycle;Signal;HPM_P1;HPM_P2
2022/04/03 00:00:46;;;;;;;5.03;4.28;;;;;;;-0.77;63.28;102284.41;5014102;28;20030;-79
2022/04/03 00:03:12;;;;;;;5.82;4.43;;;;;;;-0.79;63.75;102294.00;5013942;28;20485;-79
2022/04/03 00:05:39;;;;;;;4.90;3.70;;;;;;;-0.85;63.71;102281.88;5012663;28;20796;-78
2022/04/03 00:08:05;;;;;;;5.93;3.90;;;;;;;-0.84;64.00;102293.16;5014272;28;20049;-78
2022/04/03 00:10:31;;;;;;;7.72;3.90;;;;;;;-0.88;63.87;102289.69;5014654;28;20429;-78
2022/04/03 00:12:56;;;;;;;4.18;3.30;;;;;;;-0.91;64.05;102291.47;5013761;28;20121;-78
2022/04/03 00:15:22;;;;;;;6.15;3.83;;;;;;;-0.93;63.60;102288.84;5013775;28;20037;-78
2022/04/03 00:17:47;;;;;;;9.57;3.85;;;;;;;-0.95;63.93;102293.19;5013254;28;20103;-78
2022/04/03 00:20:13;;;;;;;5.45;3.67;;;;;;;-0.97;64.05;102293.19;5020002;28;20064;-79
2022/04/03 00:22:39;;;;;;;6.00;3.97;;;;;;;-1.01;63.64;102282.81;5033280;28;20057;-78
2022/04/03 00:25:04;;;;;;;5.45;4.30;;;;;;;-1.04;64.62;102288.03;5023469;28;20077;-79
2022/04/03 00:27:30;;;;;;;5.93;4.65;;;;;;;-1.06;64.43;102287.19;5013303;28;20034;-78
2022/04/03 00:29:55;;;;;;;5.65;4.07;;;;;;;-1.10;65.05;102288.06;5013355;28;20033;-78
2022/04/03 00:32:21;;;;;;;6.43;3.88;;;;;;;-1.13;65.11;102286.34;5012956;28;20473;-78
2022/04/03 00:34:46;;;;;;;7.05;4.38;;;;;;;-1.15;65.39;102285.47;5013122;28;20064;-79
2022/04/03 00:37:12;;;;;;;5.88;3.42;;;;;;;-1.17;65.68;102284.63;5013238;28;20025;-78
2022/04/03 00:39:37;;;;;;;9.68;4.35;;;;;;;-1.21;65.67;102286.38;5013133;28;20433;-79
2022/04/03 00:42:06;;;;;;;9.32;4.32;;;;;;;-1.26;65.69;102284.69;5012801;28;20041;-78
2022/04/03 00:44:32;;;;;;;6.15;5.32;;;;;;;-1.23;65.35;102298.56;5013009;28;20030;-78
2022/04/03 00:46:59;;;;;;;10.45;7.70;;;;;;;-1.26;65.14;102289.88;5012807;28;20050;-79
2022/04/03 00:49:24;;;;;;;14.73;10.10;;;;;;;-1.29;65.47;102289.91;5012897;28;20037;-78
2022/04/03 00:51:49;;;;;;;16.67;11.30;;;;;;;-1.29;65.84;102292.50;5013569;28;20469;-79
2022/04/03 00:54:15;;;;;;;13.43;9.32;;;;;;;-1.33;65.97;102296.88;5013797;28;20026;-78
2022/04/03 00:56:40;;;;;;;10.02;7.68;;;;;;;-1.36;66.20;102286.44;5012719;28;20384;-78
2022/04/03 00:59:06;;;;;;;10.88;7.10;;;;;;;-1.36;66.30;102286.44;5012232;28;20032;-79
2022/04/03 01:01:31;;;;;;;10.52;6.60;;;;;;;-1.38;66.05;102293.38;5012573;28;20026;-78
2022/04/03 01:03:57;;;;;;;11.15;8.13;;;;;;;-1.44;66.29;102288.22;5012661;28;20053;-79
2022/04/03 01:06:22;;;;;;;22.52;10.70;;;;;;;-1.46;66.29;102290.81;5012411;28;20092;-79
2022/04/03 01:08:47;;;;;;;19.73;12.48;;;;;;;-1.51;66.42;102285.63;5012271;28;20049;-79
2022/04/03 01:11:13;;;;;;;17.20;10.85;;;;;;;-1.52;66.79;102286.47;5012502;28;20048;-79
2022/04/03 01:13:49;;;;;;;19.33;10.13;;;;;;;-1.53;66.52;102289.13;5012249;28;20034;-79
2022/04/03 01:16:14;;;;;;;12.70;8.10;;;;;;;-1.55;66.67;102285.63;5029604;28;20064;-78
2022/04/03 01:18:40;;;;;;;9.60;6.30;;;;;;;-1.59;67.06;102284.78;5033509;28;20103;-79
2022/04/03 01:21:06;;;;;;;12.48;5.68;;;;;;;-1.67;67.09;102278.72;5014767;28;20034;-78
2022/04/03 01:23:31;;;;;;;9.50;5.45;;;;;;;-1.67;66.71;102291.72;5013107;28;20036;-78
2022/04/03 01:25:56;;;;;;;7.28;4.90;;;;;;;-1.73;67.27;102289.16;5012813;28;20046;-78
2022/04/03 01:28:25;;;;;;;8.63;5.47;;;;;;;-1.74;67.44;102288.28;5014321;28;20501;-78
2022/04/03 01:30:50;;;;;;;10.52;5.63;;;;;;;-1.75;67.46;102288.28;5014266;28;20036;-79
2022/04/03 01:33:16;;;;;;;8.20;5.07;;;;;;;-1.78;67.39;102281.34;5014124;28;20469;-78
2022/04/03 01:35:42;;;;;;;7.45;4.45;;;;;;;-1.80;67.67;102287.41;5014789;28;20101;-78
2022/04/03 01:38:07;;;;;;;6.78;5.00;;;;;;;-1.85;67.96;102284.81;5014075;28;20026;-78
2022/04/03 01:40:35;;;;;;;12.30;4.95;;;;;;;-1.90;68.33;102281.34;5014322;28;20529;-78
2022/04/03 01:43:06;;;;;;;7.78;4.90;;;;;;;-1.90;68.15;102290.06;5014123;28;20033;-78
2022/04/03 01:45:32;;;;;;;7.60;4.15;;;;;;;-1.91;68.47;102282.25;5029656;28;20033;-78
2022/04/03 01:47:59;;;;;;;7.05;4.70;;;;;;;-1.92;68.11;102283.09;5033890;28;20025;-78
2022/04/03 01:50:24;;;;;;;9.00;5.20;;;;;;;-1.97;68.23;102274.44;5034348;28;20442;-78
2022/04/03 01:52:51;;;;;;;8.88;4.70;;;;;;;-1.99;68.06;102282.25;5033815;28;20028;-79
2022/04/03 01:55:16;;;;;;;8.30;5.00;;;;;;;-2.01;68.73;102280.53;5029757;28;20026;-79
2022/04/03 01:57:41;;;;;;;10.82;4.88;;;;;;;-2.02;69.03;102276.19;5014163;28;20080;-78
2022/04/03 02:00:07;;;;;;;11.43;5.00;;;;;;;-2.06;69.50;102280.53;5014133;28;20037;-78
2022/04/03 02:02:33;;;;;;;8.82;4.63;;;;;;;-2.08;69.34;102277.06;5014218;28;20021;-78
2022/04/03 02:04:58;;;;;;;8.35;4.60;;;;;;;-2.10;69.21;102274.47;5014218;28;20144;-78
2022/04/03 02:07:24;;;;;;;6.57;4.95;;;;;;;-2.07;69.08;102273.56;5014117;28;20362;-79
2022/04/03 02:09:50;;;;;;;6.15;4.55;;;;;;;-2.12;69.26;102265.75;5013636;28;20041;-78
2022/04/03 02:12:15;;;;;;;9.73;5.07;;;;;;;-2.16;69.78;102268.41;5014012;28;20026;-78
2022/04/03 02:14:40;;;;;;;7.70;4.80;;;;;;;-2.20;69.46;102267.50;5013845;28;20109;-78
2022/04/03 02:17:06;;;;;;;5.72;4.22;;;;;;;-2.21;69.54;102267.50;5029146;28;20138;-78
2022/04/03 02:19:32;;;;;;;7.68;4.82;;;;;;;-2.24;70.13;102266.63;5013913;28;20022;-78
2022/04/03 02:21:57;;;;;;;5.20;4.60;;;;;;;-2.28;70.11;102270.13;5013655;28;20033;-78
2022/04/03 02:27:02;;;;;;;7.28;4.85;;;;;;;-2.34;69.99;102264.06;4896993;22;20056;-87
2022/04/03 02:29:30;;;;;;;7.22;4.70;;;;;;;-2.37;70.46;102266.66;5061252;28;20055;-89
2022/04/03 02:31:56;;;;;;;8.63;4.22;;;;;;;-2.40;70.54;102270.09;5055092;28;20037;-89
2022/04/03 02:34:21;;;;;;;7.72;4.40;;;;;;;-2.42;70.54;102256.25;5038040;28;20105;-88
2022/04/03 02:36:47;;;;;;;7.47;4.75;;;;;;;-2.46;70.76;102262.31;5044796;28;20104;-89
2022/04/03 02:39:15;;;;;;;6.00;4.43;;;;;;;-2.47;71.15;102265.78;5042649;28;20093;-89
2022/04/03 02:41:41;;;;;;;7.72;4.78;;;;;;;-2.50;70.47;102264.06;5046189;28;20032;-87
2022/04/03 02:44:06;;;;;;;6.65;5.00;;;;;;;-2.55;71.03;102265.75;5041406;28;20037;-88
2022/04/03 02:46:32;;;;;;;5.68;4.57;;;;;;;-2.54;70.94;102264.06;5045741;28;20075;-88
2022/04/03 02:48:57;;;;;;;7.05;4.97;;;;;;;-2.52;70.81;102268.38;5040045;28;20053;-88
2022/04/03 02:51:24;;;;;;;9.68;4.82;;;;;;;-2.53;71.02;102268.38;5051203;28;20117;-89
2022/04/03 02:53:49;;;;;;;5.32;4.80;;;;;;;-2.54;70.99;102270.09;5033970;28;20037;-87
2022/04/03 02:56:14;;;;;;;7.53;4.88;;;;;;;-2.54;71.10;102270.09;5050025;28;20025;-88
2022/04/03 02:58:41;;;;;;;5.68;4.70;;;;;;;-2.54;71.07;102270.09;5034921;28;20053;-89
2022/04/03 03:01:07;;;;;;;7.97;4.97;;;;;;;-2.56;71.59;102276.19;5034816;28;20026;-89
2022/04/03 03:03:32;;;;;;;5.70;4.82;;;;;;;-2.56;71.85;102271.84;5035823;28;20032;-89
2022/04/03 03:05:57;;;;;;;8.50;5.00;;;;;;;-2.59;71.53;102271.84;5030817;28;20044;-89
2022/04/03 03:08:23;;;;;;;5.70;5.10;;;;;;;-2.61;71.81;102274.44;5015984;28;20033;-88
2022/04/03 03:10:48;;;;;;;10.90;4.65;;;;;;;-2.65;71.25;102271.81;5015437;28;20026;-89
2022/04/03 03:13:13;;;;;;;5.97;4.70;;;;;;;-2.64;71.78;102276.16;5018862;28;20029;-89
2022/04/03 03:15:39;;;;;;;5.95;4.97;;;;;;;-2.71;72.00;102270.09;5015147;28;20096;-89
2022/04/03 03:18:05;;;;;;;7.65;5.28;;;;;;;-2.72;71.91;102273.56;5016641;28;20108;-88
2022/04/03 03:20:31;;;;;;;6.05;4.72;;;;;;;-2.70;72.47;102283.97;5015855;28;20113;-89
2022/04/03 03:22:56;;;;;;;7.78;5.30;;;;;;;-2.72;71.67;102281.34;5018470;28;20033;-88
2022/04/03 03:25:21;;;;;;;7.80;5.45;;;;;;;-2.76;72.54;102274.44;5017313;28;20400;-88
2022/04/03 03:27:47;;;;;;;7.50;5.50;;;;;;;-2.74;72.42;102280.50;5021697;28;20141;-89
2022/04/03 03:30:13;;;;;;;7.18;5.00;;;;;;;-2.72;72.18;102288.28;5034511;28;20036;-88
2022/04/03 03:32:38;;;;;;;7.43;5.43;;;;;;;-2.74;72.36;102295.22;5034215;28;20128;-89
2022/04/03 03:35:05;;;;;;;7.25;4.90;;;;;;;-2.75;72.97;102291.75;5019012;28;20033;-89
2022/04/03 03:37:30;;;;;;;7.70;5.15;;;;;;;-2.79;72.38;102292.63;5043967;28;20101;-89
2022/04/03 03:39:56;;;;;;;13.70;5.50;;;;;;;-2.83;72.39;102281.34;5019290;28;20050;-89
2022/04/03 03:42:22;;;;;;;13.32;5.65;;;;;;;-2.88;72.63;102290.88;5025010;28;20068;-89
2022/04/03 03:44:47;;;;;;;6.47;5.07;;;;;;;-2.89;72.41;102291.72;5053772;28;20029;-88
2022/04/03 03:47:13;;;;;;;8.52;4.75;;;;;;;-2.90;72.55;102284.78;5038264;28;20574;-89
2022/04/03 03:49:39;;;;;;;7.35;5.10;;;;;;;-2.90;72.78;102299.50;5036238;28;20045;-89
2022/04/03 03:52:05;;;;;;;6.63;5.30;;;;;;;-2.91;72.81;102287.41;5038584;28;20096;-89
2022/04/03 03:54:31;;;;;;;8.68;4.75;;;;;;;-2.96;72.79;102287.38;5036135;28;20029;-87
2022/04/03 03:56:57;;;;;;;8.77;5.65;;;;;;;-2.96;72.94;102284.78;5036251;28;20029;-88
2022/04/03 03:59:22;;;;;;;7.90;4.97;;;;;;;-2.98;72.72;102291.72;5035763;28;20029;-88
2022/04/03 04:01:51;;;;;;;6.68;5.20;;;;;;;-3.00;72.75;102288.22;5037206;28;20116;-88
2022/04/03 04:04:16;;;;;;;7.13;4.93;;;;;;;-2.99;72.98;102293.44;5037614;28;20050;-89
2022/04/03 04:06:41;;;;;;;7.10;5.03;;;;;;;-2.97;73.19;102290.84;5039063;28;20038;-89
2022/04/03 04:09:07;;;;;;;5.63;5.00;;;;;;;-2.98;73.17;102296.91;5041292;28;20026;-89
2022/04/03 04:11:35;;;;;;;7.93;5.00;;;;;;;-3.01;73.25;102294.31;5050520;28;20056;-89
2022/04/03 04:14:00;;;;;;;6.50;4.60;;;;;;;-3.03;73.42;102289.09;5039784;28;20033;-88
2022/04/03 04:16:26;;;;;;;5.25;4.75;;;;;;;-3.03;73.37;102286.50;5036989;28;20572;-88
2022/04/03 04:18:51;;;;;;;5.53;4.47;;;;;;;-3.04;73.76;102297.75;5035755;28;20026;-88
2022/04/03 04:21:17;;;;;;;9.40;5.25;;;;;;;-3.05;73.43;102293.44;5037173;28;20108;-89
2022/04/03 04:23:45;;;;;;;9.48;5.10;;;;;;;-3.04;73.26;102291.69;5036914;28;20025;-88
2022/04/03 04:26:10;;;;;;;7.50;5.38;;;;;;;-3.05;73.32;102298.63;5051793;28;20049;-87
2022/04/03 04:28:36;;;;;;;6.35;5.20;;;;;;;-3.06;73.63;102296.00;5035598;28;20029;-88
2022/04/03 04:31:01;;;;;;;7.93;4.82;;;;;;;-3.08;73.46;102289.91;5036459;28;20079;-88
2022/04/03 04:33:27;;;;;;;8.38;5.93;;;;;;;-3.08;73.47;102301.22;5036349;28;20151;-88
2022/04/03 04:35:52;;;;;;;7.38;5.35;;;;;;;-3.13;74.02;102292.53;5051498;28;20025;-88
2022/04/03 04:38:18;;;;;;;8.10;5.22;;;;;;;-3.12;73.61;102302.03;5017536;28;20010;-89
2022/04/03 04:40:44;;;;;;;6.10;5.30;;;;;;;-3.12;73.96;102308.97;5017242;28;20025;-89
2022/04/03 04:43:10;;;;;;;9.65;4.97;;;;;;;-3.13;74.77;102309.84;5031913;28;20030;-89
2022/04/03 04:45:39;;;;;;;6.80;5.18;;;;;;;-3.18;74.13;102308.09;5020816;28;20029;-88
2022/04/03 04:48:04;;;;;;;6.43;4.97;;;;;;;-3.22;73.77;102303.72;5036592;28;20053;-88
2022/04/03 04:50:31;;;;;;;6.25;5.28;;;;;;;-3.21;74.63;102307.22;5036655;28;20388;-89
2022/04/03 04:52:57;;;;;;;6.82;5.05;;;;;;;-3.23;74.88;102312.41;5036795;28;20109;-88
2022/04/03 04:55:23;;;;;;;7.25;5.78;;;;;;;-3.24;75.41;102302.00;5052995;28;20091;-89
2022/04/03 04:57:54;;;;;;;8.52;5.22;;;;;;;-3.25;75.23;102310.66;5038979;28;20029;-88
2022/04/03 05:00:21;;;;;;;8.95;4.97;;;;;;;-3.27;74.80;102312.38;5040090;28;20036;-88
2022/04/03 05:02:47;;;;;;;10.20;5.40;;;;;;;-3.29;74.78;102304.56;5027337;28;20034;-88
2022/04/03 05:05:14;;;;;;;7.80;5.32;;;;;;;-3.29;74.66;102319.31;5023656;28;20025;-88
2022/04/03 05:07:40;;;;;;;7.35;5.47;;;;;;;-3.32;75.18;102314.09;5035718;28;20502;-89
2022/04/03 05:10:06;;;;;;;6.95;6.05;;;;;;;-3.37;75.09;102317.53;5026965;28;20034;-89
2022/04/03 05:12:32;;;;;;;8.13;5.60;;;;;;;-3.36;75.60;102319.28;5037433;28;20500;-89
2022/04/03 05:14:58;;;;;;;10.50;5.25;;;;;;;-3.33;75.12;102328.81;5036485;28;20025;-88
2022/04/03 05:17:23;;;;;;;6.68;5.00;;;;;;;-3.36;75.01;102326.19;5037822;28;20052;-89
2022/04/03 05:19:48;;;;;;;8.85;5.28;;;;;;;-3.37;75.13;102325.31;5039247;28;20033;-88
2022/04/03 05:22:14;;;;;;;8.43;5.15;;;;;;;-3.35;75.55;102333.13;5041942;28;20052;-88
2022/04/03 05:24:39;;;;;;;8.15;4.95;;;;;;;-3.36;75.14;102332.25;5054467;28;20030;-88
2022/04/03 05:27:05;;;;;;;5.57;4.82;;;;;;;-3.31;75.24;102334.00;5052757;28;20045;-89
2022/04/03 05:29:34;;;;;;;6.45;5.20;;;;;;;-3.31;75.16;102328.81;5044629;28;20063;-89
2022/04/03 05:32:00;;;;;;;8.23;5.97;;;;;;;-3.29;75.61;102334.91;5044499;28;20376;-89
2022/04/03 05:34:25;;;;;;;7.43;5.20;;;;;;;-3.30;75.35;102338.34;5037059;28;20025;-89
2022/04/03 05:36:51;;;;;;;7.05;5.30;;;;;;;-3.27;75.85;102339.22;5036577;28;20079;-89
2022/04/03 05:39:16;;;;;;;7.25;5.00;;;;;;;-3.27;75.75;102341.81;5036791;28;20469;-89
2022/04/03 05:41:42;;;;;;;7.32;5.38;;;;;;;-3.27;75.71;102336.63;5054169;28;20021;-90
2022/04/03 05:44:09;;;;;;;9.18;5.35;;;;;;;-3.24;75.94;102340.97;5055059;28;20044;-89
2022/04/03 05:46:34;;;;;;;9.82;5.43;;;;;;;-3.21;76.13;102343.59;5034708;28;20026;-89
2022/04/03 05:49:00;;;;;;;10.10;6.07;;;;;;;-3.16;76.37;102347.09;5026709;28;20040;-89
2022/04/03 05:51:25;;;;;;;11.70;5.85;;;;;;;-3.14;76.67;102344.50;5038916;28;20029;-89
2022/04/03 05:53:51;;;;;;;9.75;6.95;;;;;;;-3.08;76.98;102352.31;5039556;28;20033;-88
2022/04/03 05:56:16;;;;;;;7.03;5.32;;;;;;;-3.08;76.33;102347.09;5040064;28;20504;-89
2022/04/03 05:58:43;;;;;;;7.03;5.80;;;;;;;-3.00;76.63;102354.09;5038922;28;20029;-89
2022/04/03 06:01:08;;;;;;;7.10;5.60;;;;;;;-2.97;76.22;102350.63;5039892;28;20469;-89
2022/04/03 06:03:34;;;;;;;7.03;5.07;;;;;;;-2.94;76.79;102348.03;5040342;28;20067;-89
2022/04/03 06:06:00;;;;;;;8.35;5.57;;;;;;;-2.88;77.06;102361.06;5041320;28;20048;-89
2022/04/03 06:08:26;;;;;;;6.72;5.30;;;;;;;-2.81;76.72;102355.00;5058132;28;20053;-89
2022/04/03 06:10:51;;;;;;;7.35;5.07;;;;;;;-2.77;77.27;102352.44;5043076;28;20033;-88
2022/04/03 06:13:17;;;;;;;7.22;5.43;;;;;;;-2.72;76.81;102358.50;5040818;28;20025;-88
2022/04/03 06:15:47;;;;;;;7.30;5.35;;;;;;;-2.61;77.42;102367.22;5040244;28;20026;-89
2022/04/03 06:18:14;;;;;;;7.85;5.93;;;;;;;-2.56;77.01;102356.84;5043815;28;20013;-89
2022/04/03 06:20:40;;;;;;;5.95;5.28;;;;;;;-2.52;77.07;102364.63;5048667;28;20128;-88
2022/04/03 06:23:11;;;;;;;8.57;5.50;;;;;;;-2.41;77.16;102372.47;5043990;28;20038;-89
2022/04/03 06:25:36;;;;;;;8.10;4.82;;;;;;;-2.35;77.18;102366.41;5037206;28;20053;-89
2022/04/03 06:28:02;;;;;;;7.82;5.82;;;;;;;-2.26;77.22;102364.69;5036934;28;20079;-88
2022/04/03 06:30:28;;;;;;;7.07;5.30;;;;;;;-2.21;77.23;102362.09;5036649;28;20032;-86
2022/04/03 06:32:55;;;;;;;8.60;5.32;;;;;;;-2.12;76.74;102364.69;5034077;28;20029;-85
2022/04/03 06:35:20;;;;;;;9.98;5.90;;;;;;;-2.07;77.04;102362.94;5035077;28;20053;-85
2022/04/03 06:37:45;;;;;;;8.20;5.47;;;;;;;-1.99;76.81;102362.09;5035285;28;20080;-85
2022/04/03 06:40:11;;;;;;;9.20;5.70;;;;;;;-1.92;77.04;102361.22;5040201;28;20036;-85
2022/04/03 06:42:37;;;;;;;11.70;6.82;;;;;;;-1.87;76.42;102362.94;5040320;28;20021;-84
2022/04/03 06:45:03;;;;;;;7.55;5.78;;;;;;;-1.81;76.67;102358.63;5041282;28;20032;-85
2022/04/03 06:47:31;;;;;;;11.48;6.45;;;;;;;-1.76;76.89;102357.75;5040200;28;20522;-84
2022/04/03 06:49:56;;;;;;;8.95;6.00;;;;;;;-1.68;77.20;102362.97;5039690;28;20029;-85
2022/04/03 06:52:23;;;;;;;9.30;5.45;;;;;;;-1.61;77.04;102356.84;5037134;28;20500;-84
2022/04/03 06:54:49;;;;;;;7.28;5.70;;;;;;;-1.53;77.39;102356.84;5036679;28;20087;-85
2022/04/03 06:57:15;;;;;;;10.95;6.43;;;;;;;-1.46;77.26;102361.19;5039612;28;20592;-85
2022/04/03 06:59:44;;;;;;;8.32;5.53;;;;;;;-1.39;77.35;102359.44;5028472;28;20071;-85
2022/04/03 07:02:10;;;;;;;8.18;6.28;;;;;;;-1.31;77.99;102355.91;5038396;28;20025;-84
2022/04/03 07:04:36;;;;;;;7.82;6.50;;;;;;;-1.24;77.84;102364.59;5046235;28;20098;-84
2022/04/03 07:07:02;;;;;;;8.27;6.25;;;;;;;-1.14;77.80;102365.44;5031829;28;20063;-85
2022/04/03 07:09:27;;;;;;;9.73;7.47;;;;;;;-1.04;77.92;102368.88;5038110;28;20492;-84
2022/04/03 07:11:53;;;;;;;10.88;7.43;;;;;;;-0.93;77.66;102367.09;5031379;28;20034;-85
2022/04/03 07:14:24;;;;;;;13.02;7.22;;;;;;;-0.86;77.70;102366.19;5038548;28;20042;-83
2022/04/03 07:16:49;;;;;;;10.80;7.68;;;;;;;-0.75;78.23;102359.19;5038417;28;20090;-85
2022/04/03 07:19:15;;;;;;;11.00;7.18;;;;;;;-0.58;78.43;102363.47;5037030;28;20054;-84
2022/04/03 07:21:40;;;;;;;9.35;7.28;;;;;;;-0.41;79.11;102360.75;5037507;28;20029;-83
2022/04/03 07:24:06;;;;;;;9.05;7.38;;;;;;;-0.17;79.00;102364.06;5037594;28;20426;-83
2022/04/03 07:26:32;;;;;;;13.25;8.43;;;;;;;0.06;78.71;102363.88;5038240;28;20049;-84
2022/04/03 07:28:58;;;;;;;12.52;8.63;;;;;;;0.33;78.36;102358.41;5037904;28;20052;-83
2022/04/03 07:31:23;;;;;;;10.88;8.60;;;;;;;0.57;78.16;102356.44;5039025;28;20601;-84
2022/04/03 07:33:49;;;;;;;11.88;8.65;;;;;;;0.92;77.97;102366.50;5038327;28;20052;-84
2022/04/03 07:36:16;;;;;;;12.48;9.43;;;;;;;1.26;77.23;102365.19;5036934;28;20033;-84
2022/04/03 07:38:41;;;;;;;12.98;9.13;;;;;;;1.61;76.45;102364.69;5040686;28;20041;-84
2022/04/03 07:41:13;;;;;;;10.55;8.70;;;;;;;1.95;75.33;102366.81;5040285;28;20036;-84
2022/04/03 07:43:39;;;;;;;12.32;8.27;;;;;;;2.26;74.22;102374.16;5049403;28;20064;-84
2022/04/03 07:46:04;;;;;;;10.00;7.38;;;;;;;2.57;73.23;102365.75;5040427;28;20033;-85
2022/04/03 07:48:35;;;;;;;13.73;7.30;;;;;;;2.88;72.71;102363.41;5040326;28;20041;-84
2022/04/03 07:51:00;;;;;;;8.27;6.82;;;;;;;3.24;71.36;102354.81;5041558;28;20060;-84
2022/04/03 07:53:25;;;;;;;10.52;6.78;;;;;;;3.59;69.84;102361.88;5042191;28;20041;-84
2022/04/03 07:55:51;;;;;;;9.10;6.10;;;;;;;3.99;68.51;102362.72;5041354;28;20030;-83
2022/04/03 07:58:16;;;;;;;9.15;5.97;;;;;;;4.37;69.25;102359.09;5057017;28;20048;-83
2022/04/03 08:00:41;;;;;;;11.15;6.10;;;;;;;4.72;67.64;102362.56;5042552;28;20034;-83
2022/04/03 08:03:07;;;;;;;8.88;5.70;;;;;;;4.95;64.84;102361.06;5045764;28;20052;-82
2022/04/03 08:05:32;;;;;;;7.60;4.75;;;;;;;5.31;64.26;102355.59;5065012;28;20041;-84
2022/04/03 08:07:58;;;;;;;6.47;5.03;;;;;;;5.63;63.54;102362.53;5041344;28;20038;-84
2022/04/03 08:10:23;;;;;;;6.05;4.63;;;;;;;5.90;61.89;102357.28;5044985;28;20018;-84
2022/04/03 08:12:50;;;;;;;5.68;3.95;;;;;;;6.18;60.51;102357.25;5043723;28;20033;-83
2022/04/03 08:15:18;;;;;;;6.07;3.60;;;;;;;6.40;59.08;102357.38;5056371;28;20035;-83
2022/04/03 08:17:44;;;;;;;5.87;3.30;;;;;;;6.61;55.80;102362.81;5054429;28;20088;-82
2022/04/03 08:20:12;;;;;;;5.65;2.95;;;;;;;6.79;55.37;102359.50;5044493;28;20033;-83
2022/04/03 08:22:42;;;;;;;4.28;2.90;;;;;;;7.10;54.30;102355.75;5046119;28;20025;-83
2022/04/03 08:25:10;;;;;;;;;;;;;;;7.30;59.70;102354.97;5057379;28;20081;-83
2022/04/03 08:27:52;;;;;;;6.68;2.40;;;;;;;7.62;53.93;102362.59;5053407;28;19917;-84
2022/04/03 08:30:21;;;;;;;2.10;1.90;;;;;;;7.90;51.90;102357.03;5072683;28;20033;-85
2022/04/03 08:32:46;;;;;;;6.28;2.45;;;;;;;8.17;51.44;102360.31;5057540;28;20041;-84
2022/04/03 08:35:14;;;;;;;2.30;2.10;;;;;;;8.41;50.45;102360.19;5054604;28;20125;-84
2022/04/03 08:37:40;;;;;;;5.18;2.50;;;;;;;8.68;51.07;102366.13;5041397;28;20028;-84
2022/04/03 08:40:07;;;;;;;4.22;2.17;;;;;;;8.89;49.98;102353.69;5053236;28;20069;-84
2022/04/03 08:42:34;;;;;;;3.35;2.10;;;;;;;9.14;47.53;102355.22;5056862;28;20033;-83
2022/04/03 08:45:00;;;;;;;4.07;2.38;;;;;;;9.40;47.65;102359.31;5056100;28;20067;-83
2022/04/03 08:47:27;;;;;;;2.70;2.50;;;;;;;9.59;46.47;102357.50;5058838;28;20076;-85
2022/04/03 08:49:59;;;;;;;3.45;2.60;;;;;;;9.74;45.99;102358.56;5041355;28;20048;-84
2022/04/03 08:52:31;;;;;;;3.70;2.05;;;;;;;9.86;46.30;102356.19;5058170;28;20010;-86
2022/04/03 08:54:58;;;;;;;5.05;2.33;;;;;;;10.02;45.64;102362.47;5056461;28;20072;-86
2022/04/03 08:57:24;;;;;;;3.17;2.20;;;;;;;10.15;45.18;102357.41;5074390;28;20025;-84
2022/04/03 08:59:51;;;;;;;4.97;2.40;;;;;;;10.21;44.11;102365.06;5058957;28;20063;-84
2022/04/03 09:02:17;;;;;;;3.20;2.45;;;;;;;10.33;44.13;102356.50;5057807;28;20026;-84
2022/04/03 09:04:44;;;;;;;3.28;2.40;;;;;;;10.60;43.99;102350.69;5071443;28;20061;-83
2022/04/03 09:07:18;;;;;;;6.13;2.45;;;;;;;10.74;45.36;102350.84;5063413;28;20024;-86
2022/04/03 09:09:45;;;;;;;4.00;2.38;;;;;;;10.97;45.04;102351.38;5066448;28;20029;-84
2022/04/03 09:12:13;;;;;;;3.42;2.30;;;;;;;11.12;42.57;102349.69;5061511;28;20044;-85
2022/04/03 09:14:52;;;;;;;6.05;2.35;;;;;;;11.32;42.79;102343.25;5037328;28;20061;-85
2022/04/03 09:17:38;;;;;;;;;;;;;;;11.68;46.39;102349.28;5034028;28;20025;-84
2022/04/03 09:20:09;;;;;;;5.55;2.92;;;;;;;11.69;41.30;102351.84;5029763;28;19913;-84
2022/04/03 09:22:37;;;;;;;4.78;2.05;;;;;;;11.80;41.25;102343.25;5058185;28;20013;-84
2022/04/03 09:25:07;;;;;;;4.05;2.20;;;;;;;11.89;40.97;102340.06;5070694;28;20047;-84
2022/04/03 09:27:45;;;;;;;4.10;2.42;;;;;;;11.99;41.50;102325.28;5056995;28;20061;-84
2022/04/03 09:30:13;;;;;;;3.38;1.98;;;;;;;11.82;39.59;102336.91;5037650;28;20113;-83
2022/04/03 09:32:57;;;;;;;4.05;1.95;;;;;;;12.05;40.83;102325.88;5049160;28;20020;-84
2022/04/03 09:35:28;;;;;;;2.97;1.85;;;;;;;12.27;39.45;102328.09;5056866;28;20029;-84
2022/04/03 09:38:07;;;;;;;3.83;2.30;;;;;;;12.36;39.88;102327.56;5030396;28;20028;-84
2022/04/03 09:40:41;;;;;;;2.63;1.92;;;;;;;12.44;39.57;102322.63;5057326;28;20041;-85
2022/04/03 09:43:13;;;;;;;4.40;2.00;;;;;;;12.49;39.08;102328.53;5068405;28;20013;-84
2022/04/03 09:45:55;;;;;;;3.38;1.80;;;;;;;12.37;39.50;102316.81;5057188;28;20033;-84
2022/04/03 09:48:40;;;;;;;1.38;1.27;;;;;;;12.32;37.90;102320.69;5073433;28;20140;-84
2022/04/03 09:51:06;;;;;;;2.75;1.63;;;;;;;12.44;37.09;102316.41;5069064;28;20056;-84
2022/04/03 09:53:56;;;;;;;2.40;1.48;;;;;;;12.70;38.88;102318.34;5053509;28;20030;-83
2022/04/03 09:56:22;;;;;;;6.75;1.55;;;;;;;12.99;36.73;102313.00;5056571;28;20064;-83
2022/04/03 09:58:51;;;;;;;2.88;1.45;;;;;;;13.06;36.36;102318.81;5070780;28;20021;-85
2022/04/03 10:01:27;;;;;;;2.47;1.50;;;;;;;13.17;37.49;102307.44;5069599;22;20179;-65
2022/04/03 10:03:53;;;;;;;4.35;1.70;;;;;;;13.18;35.47;102304.66;5031589;28;20029;-63
2022/04/03 10:06:19;;;;;;;5.50;1.40;;;;;;;13.18;35.85;102295.81;5020526;28;20124;-63
2022/04/03 10:08:46;;;;;;;3.40;1.48;;;;;;;12.98;34.75;102302.44;5027406;28;20192;-64
2022/04/03 10:11:12;;;;;;;2.67;1.65;;;;;;;12.81;36.17;102300.84;5026086;28;20049;-64
2022/04/03 10:13:38;;;;;;;2.60;1.50;;;;;;;12.66;36.17;102299.97;5030978;28;20032;-64
2022/04/03 10:16:04;;;;;;;3.83;1.20;;;;;;;12.49;34.32;102299.22;5032198;28;20431;-66
2022/04/03 10:18:30;;;;;;;2.85;1.65;;;;;;;12.49;35.36;102291.22;5028382;28;20479;-64
2022/04/03 10:20:55;;;;;;;2.83;1.10;;;;;;;12.45;33.10;102288.81;5031300;28;20541;-64
2022/04/03 10:23:24;;;;;;;2.00;1.25;;;;;;;12.35;35.06;102281.38;5022912;28;20072;-63
2022/04/03 10:25:52;;;;;;;1.77;1.27;;;;;;;12.36;34.70;102280.44;5012467;28;20468;-64
2022/04/03 10:28:20;;;;;;;4.77;1.40;;;;;;;12.44;35.34;102284.44;5027518;28;20069;-64
2022/04/03 10:30:58;;;;;;;1.63;1.25;;;;;;;12.61;36.14;102280.72;5014725;28;20709;-64
2022/04/03 10:33:24;;;;;;;2.47;1.20;;;;;;;12.87;35.63;102276.44;5015048;28;20048;-63
2022/04/03 10:36:06;;;;;;;2.55;1.30;;;;;;;13.04;36.55;102283.34;5016389;28;20037;-64
2022/04/03 10:38:43;;;;;;;3.03;1.25;;;;;;;13.02;35.89;102288.78;5031180;28;20407;-64
2022/04/03 10:41:25;;;;;;;4.20;1.73;;;;;;;12.99;36.74;102286.34;5016829;28;20095;-63
2022/04/03 10:44:10;;;;;;;2.47;1.20;;;;;;;13.09;36.44;102278.56;5028212;28;20034;-64
2022/04/03 10:47:02;;;;;;;1.25;1.15;;;;;;;12.91;35.31;102272.63;5016201;28;20038;-63
2022/04/03 10:49:37;;;;;;;3.05;1.30;;;;;;;12.76;34.20;102277.97;5019474;28;20030;-64
2022/04/03 10:52:04;;;;;;;3.78;1.63;;;;;;;12.87;33.89;102277.31;5028556;28;20038;-64
2022/04/03 10:54:31;;;;;;;3.28;1.35;;;;;;;12.78;34.05;102268.06;5017020;28;20465;-65
2022/04/03 10:57:30;;;;;;;2.58;1.52;;;;;;;12.74;36.01;102271.88;5013913;28;20885;-65
2022/04/03 11:00:14;;;;;;;1.85;1.30;;;;;;;12.49;35.98;102271.69;5017921;28;20041;-64
2022/04/03 11:02:44;;;;;;;4.15;1.52;;;;;;;12.16;35.50;102272.81;5014026;28;20076;-64
2022/04/03 11:05:22;;;;;;;2.33;1.70;;;;;;;12.17;36.67;102269.19;5017405;28;20029;-65
2022/04/03 11:07:54;;;;;;;2.88;1.73;;;;;;;12.03;37.45;102262.88;5017838;28;20050;-64
2022/04/03 11:11:00;;;;;;;3.47;1.50;;;;;;;12.00;38.91;102265.72;5017611;28;20517;-65
2022/04/03 11:13:28;;;;;;;2.15;1.50;;;;;;;11.88;35.99;102262.94;5030101;28;20053;-64
2022/04/03 11:15:54;;;;;;;4.00;1.20;;;;;;;11.94;36.09;102260.78;5015393;28;20076;-63
2022/04/03 11:18:41;;;;;;;2.95;1.15;;;;;;;11.92;35.95;102257.34;5015626;28;20396;-64
2022/04/03 11:21:27;;;;;;;2.78;1.15;;;;;;;11.93;36.35;102252.91;5023074;28;20041;-64
2022/04/03 11:24:13;;;;;;;2.22;1.40;;;;;;;11.97;37.51;102257.06;5016053;28;20026;-64
2022/04/03 11:26:41;;;;;;;1.40;1.30;;;;;;;11.83;35.04;102250.75;4998148;28;20037;-63
2022/04/03 11:29:09;;;;;;;2.08;1.60;;;;;;;11.79;35.73;102246.56;5015642;28;20503;-64